createdAt,value
2023-05-22T00:01:49.359Z,100768.66
2023-05-22T00:04:22.013Z,100760.72
2023-05-22T00:06:49.064Z,100758.19
2023-05-22T00:09:15.777Z,100764.97
2023-05-22T00:11:42.679Z,100773.66
2023-05-22T00:14:09.216Z,100772.22
2023-05-22T00:16:35.755Z,100779.59
2023-05-22T00:19:02.168Z,100768.88
2023-05-22T00:21:34.850Z,100771.41
2023-05-22T00:24:01.892Z,100739.06
2023-05-22T00:26:28.275Z,100745.84
2023-05-22T00:28:54.786Z,100749.28
2023-05-22T00:31:21.173Z,100760.31
2023-05-22T00:33:47.629Z,100762.69
2023-05-22T00:36:14.056Z,100749.72
2023-05-22T00:38:40.605Z,100741.97
2023-05-22T00:41:07.676Z,100734.47
2023-05-22T00:43:34.237Z,100721.53
2023-05-22T00:46:00.712Z,100705.22
2023-05-22T00:48:27.355Z,100709.97
2023-05-22T00:50:55.326Z,100722.63
2023-05-22T00:53:22.620Z,100730.69
2023-05-22T00:55:49.533Z,100734.13
2023-05-22T00:58:18.081Z,100755.88
2023-05-22T01:03:11.924Z,100773.84
2023-05-22T01:05:39.868Z,100768.03
2023-05-22T01:08:07.927Z,100755.91
2023-05-22T01:10:36.536Z,100749.44
2023-05-22T01:13:12.572Z,100748.47
2023-05-22T01:15:43.590Z,100742.66
2023-05-22T01:18:31.890Z,100749.72
2023-05-22T01:21:06.478Z,100731.13
2023-05-22T01:23:43.468Z,100736.25
2023-05-22T01:26:36.775Z,100735.97
2023-05-22T01:29:20.192Z,100723.09
2023-05-22T01:31:48.994Z,100700.13
2023-05-22T01:34:17.314Z,100690.78
2023-05-22T01:36:46.354Z,100687.53
2023-05-22T01:39:14.472Z,100687.84
2023-05-22T01:41:41.099Z,100678.88
2023-05-22T01:44:07.544Z,100678.94
2023-05-22T01:46:34.058Z,100666.41
2023-05-22T01:49:00.512Z,100670.03
2023-05-22T01:51:42.144Z,100663.34
2023-05-22T01:54:42.171Z,100663.41
2023-05-22T01:57:28.876Z,100666.34
2023-05-22T02:00:09.700Z,100674.97
2023-05-22T02:02:38.622Z,100678.53
2023-05-22T02:05:06.581Z,100669.53
2023-05-22T02:07:36.544Z,100669.06
2023-05-22T02:10:03.526Z,100673.25
2023-05-22T02:12:30.551Z,100667.34
2023-05-22T02:14:57.362Z,100667.13
2023-05-22T02:17:24.362Z,100665.47
2023-05-22T02:19:50.772Z,100658.34
2023-05-22T02:22:17.333Z,100668.41
2023-05-22T02:24:47.228Z,100657.50
2023-05-22T02:27:14.147Z,100655.03
2023-05-22T02:29:40.616Z,100663.19
2023-05-22T02:32:07.323Z,100648.72
2023-05-22T02:34:33.799Z,100664.03
2023-05-22T02:37:03.571Z,100648.72
2023-05-22T02:39:30.314Z,100638.66
2023-05-22T02:41:56.807Z,100654.16
2023-05-22T02:44:24.487Z,100665.31
2023-05-22T02:46:50.884Z,100668.25
2023-05-22T02:49:17.403Z,100670.13
2023-05-22T02:51:47.452Z,100671.22
2023-05-22T02:54:15.457Z,100652.97
2023-05-22T02:56:43.181Z,100647.50
2023-05-22T02:59:09.715Z,100665.75
2023-05-22T03:01:36.394Z,100669.31
2023-05-22T03:04:03.050Z,100669.06
2023-05-22T03:06:29.685Z,100661.75
2023-05-22T03:08:56.302Z,100656.31
2023-05-22T03:11:22.728Z,100651.69
2023-05-22T03:13:49.238Z,100647.06
2023-05-22T03:16:15.679Z,100648.72
2023-05-22T03:18:42.121Z,100655.03
2023-05-22T03:21:08.583Z,100649.78
2023-05-22T03:23:34.962Z,100654.16
2023-05-22T03:26:01.464Z,100649.34
2023-05-22T03:28:27.887Z,100648.25
2023-05-22T03:30:54.534Z,100644.50
2023-05-22T03:33:20.971Z,100644.25
2023-05-22T03:35:47.360Z,100642.38
2023-05-22T03:38:13.848Z,100633.16
2023-05-22T03:40:40.786Z,100639.22
2023-05-22T03:43:07.366Z,100638.38
2023-05-22T03:45:33.822Z,100631.03
2023-05-22T03:48:00.279Z,100622.25
2023-05-22T03:50:26.713Z,100605.88
2023-05-22T03:52:53.100Z,100601.72
2023-05-22T03:55:19.508Z,100594.63
2023-05-22T03:57:45.908Z,100595.91
2023-05-22T04:00:13.549Z,100604.06
2023-05-22T04:02:40.103Z,100603.25
2023-05-22T04:05:08.157Z,100614.16
2023-05-22T04:07:34.684Z,100607.63
2023-05-22T04:10:01.123Z,100605.53
2023-05-22T04:12:27.496Z,100601.72
2023-05-22T04:14:54.879Z,100592.47
2023-05-22T04:17:21.285Z,100600.44
2023-05-22T04:19:47.794Z,100602.09
2023-05-22T04:22:14.685Z,100596.66
2023-05-22T04:24:41.223Z,100592.88
2023-05-22T04:27:07.783Z,100604.59
2023-05-22T04:29:36.317Z,100610.88
2023-05-22T04:32:02.884Z,100613.63
2023-05-22T04:34:30.127Z,100613.41
2023-05-22T04:36:56.542Z,100608.78
2023-05-22T04:39:26.200Z,100610.44
2023-05-22T04:41:52.722Z,100612.34
2023-05-22T04:44:22.748Z,100608.78
2023-05-22T04:46:50.176Z,100612.56
2023-05-22T04:49:16.626Z,100609.22
2023-05-22T04:51:43.102Z,100608.84
2023-05-22T04:54:09.602Z,100609.28
2023-05-22T04:56:37.357Z,100606.19
2023-05-22T04:59:05.363Z,100614.81
2023-05-22T05:01:33.480Z,100619.03
2023-05-22T05:04:00.532Z,100606.94
2023-05-22T05:06:27.248Z,100617.22
2023-05-22T05:08:54.116Z,100614.94
2023-05-22T05:11:21.545Z,100620.38
2023-05-22T05:13:47.967Z,100623.09
2023-05-22T05:16:14.482Z,100616.59
2023-05-22T05:18:40.870Z,100611.97
2023-05-22T05:21:07.423Z,100611.53
2023-05-22T05:23:33.892Z,100618.41
2023-05-22T05:26:00.307Z,100608.97
2023-05-22T05:28:26.797Z,100609.38
2023-05-22T05:30:53.516Z,100603.47
2023-05-22T05:33:20.005Z,100615.56
2023-05-22T05:35:46.485Z,100606.72
2023-05-22T05:38:12.864Z,100606.06
2023-05-22T05:40:39.514Z,100610.03
2023-05-22T05:43:09.043Z,100604.72
2023-05-22T05:45:35.724Z,100609.03
2023-05-22T05:48:02.239Z,100616.09
2023-05-22T05:50:28.647Z,100616.84
2023-05-22T05:52:55.041Z,100609.19
2023-05-22T05:55:21.581Z,100614.13
2023-05-22T05:57:47.988Z,100615.50
2023-05-22T06:00:14.662Z,100616.00
2023-05-22T06:02:41.896Z,100609.41
2023-05-22T06:05:09.162Z,100612.84
2023-05-22T06:07:37.995Z,100610.28
2023-05-22T06:10:09.479Z,100604.75
2023-05-22T06:12:36.321Z,100606.78
2023-05-22T06:15:07.254Z,100606.94
2023-05-22T06:17:34.759Z,100611.22
2023-05-22T06:20:01.442Z,100608.59
2023-05-22T06:22:29.193Z,100603.88
2023-05-22T06:24:55.681Z,100610.91
2023-05-22T06:27:22.845Z,100612.69
2023-05-22T06:29:49.898Z,100617.59
2023-05-22T06:32:16.625Z,100631.72
2023-05-22T06:34:44.948Z,100617.97
2023-05-22T06:37:11.884Z,100628.34
2023-05-22T06:39:38.911Z,100627.75
2023-05-22T06:42:05.557Z,100627.16
2023-05-22T06:44:31.960Z,100626.81
2023-05-22T06:46:58.405Z,100619.31
2023-05-22T06:49:24.908Z,100630.50
2023-05-22T06:51:51.581Z,100617.50
2023-05-22T06:54:19.383Z,100628.09
2023-05-22T06:56:46.111Z,100630.47
2023-05-22T06:59:12.563Z,100626.78
2023-05-22T07:01:39.042Z,100629.38
2023-05-22T07:04:05.591Z,100631.16
2023-05-22T07:06:33.594Z,100628.25
2023-05-22T07:08:59.997Z,100634.44
2023-05-22T07:11:26.393Z,100635.97
2023-05-22T07:13:52.867Z,100633.09
2023-05-22T07:16:19.344Z,100634.00
2023-05-22T07:18:46.876Z,100634.94
2023-05-22T07:21:13.268Z,100640.50
2023-05-22T07:23:39.685Z,100637.38
2023-05-22T07:26:07.462Z,100641.38
2023-05-22T07:28:33.853Z,100641.03
2023-05-22T07:31:00.324Z,100641.44
2023-05-22T07:33:26.857Z,100646.28
2023-05-22T07:35:53.291Z,100644.75
2023-05-22T07:38:19.703Z,100651.50
2023-05-22T07:40:46.329Z,100650.59
2023-05-22T07:43:12.748Z,100650.75
2023-05-22T07:45:40.127Z,100647.09
2023-05-22T07:48:06.899Z,100645.94
2023-05-22T07:50:33.528Z,100643.06
2023-05-22T07:53:00.198Z,100653.66
2023-05-22T07:55:26.707Z,100650.56
2023-05-22T07:57:53.101Z,100649.38
2023-05-22T08:00:20.062Z,100657.22
2023-05-22T08:02:46.576Z,100650.78
2023-05-22T08:05:13.175Z,100654.19
2023-05-22T08:07:39.659Z,100655.13
2023-05-22T08:10:15.393Z,100658.31
2023-05-22T08:12:41.783Z,100658.41
2023-05-22T08:15:08.578Z,100661.03
2023-05-22T08:17:35.621Z,100650.13
2023-05-22T08:20:02.316Z,100649.88
2023-05-22T08:22:32.064Z,100656.56
2023-05-22T08:24:58.548Z,100657.44
2023-05-22T08:27:24.980Z,100654.72
2023-05-22T08:29:52.118Z,100660.50
2023-05-22T08:32:18.624Z,100659.16
2023-05-22T08:34:46.063Z,100660.31
2023-05-22T08:37:14.068Z,100660.59
2023-05-22T08:39:40.736Z,100663.41
2023-05-22T08:42:08.008Z,100661.53
2023-05-22T08:44:34.563Z,100657.16
2023-05-22T08:47:01.890Z,100663.78
2023-05-22T08:49:28.488Z,100653.06
2023-05-22T08:52:05.809Z,100661.09
2023-05-22T08:54:36.387Z,100646.53
2023-05-22T08:57:02.966Z,100641.88
2023-05-22T08:59:30.440Z,100647.66
2023-05-22T09:01:58.004Z,100650.16
2023-05-22T09:04:24.543Z,100644.09
2023-05-22T09:06:51.819Z,100658.09
2023-05-22T09:09:18.612Z,100660.00
2023-05-22T09:11:45.320Z,100653.91
2023-05-22T09:14:12.055Z,100652.47
2023-05-22T09:16:49.795Z,100649.44
2023-05-22T09:19:16.376Z,100649.09
2023-05-22T09:21:44.421Z,100652.63
2023-05-22T09:24:11.582Z,100652.31
2023-05-22T09:26:41.107Z,100649.56
2023-05-22T09:29:08.088Z,100649.25
2023-05-22T09:31:44.638Z,100648.97
2023-05-22T09:34:14.417Z,100647.91
2023-05-22T09:36:42.310Z,100645.97
2023-05-22T09:39:09.474Z,100650.38
2023-05-22T09:41:39.593Z,100643.22
2023-05-22T09:44:13.791Z,100646.56
2023-05-22T09:46:41.551Z,100645.97
2023-05-22T09:49:08.274Z,100640.47
2023-05-22T09:51:36.270Z,100648.47
2023-05-22T09:54:04.016Z,100650.13
2023-05-22T09:56:39.022Z,100644.63
2023-05-22T09:59:09.237Z,100646.00
2023-05-22T10:01:36.595Z,100650.41
2023-05-22T10:04:04.702Z,100652.69
2023-05-22T10:06:33.835Z,100654.91
2023-05-22T10:09:05.049Z,100651.34
2023-05-22T10:11:32.790Z,100653.00
2023-05-22T10:14:00.711Z,100646.16
2023-05-22T10:16:28.369Z,100654.69
2023-05-22T10:18:56.283Z,100657.22
2023-05-22T10:21:22.883Z,100652.81
2023-05-22T10:23:49.893Z,100650.09
2023-05-22T10:26:17.514Z,100648.19
2023-05-22T10:28:51.395Z,100650.72
2023-05-22T10:31:27.217Z,100643.31
2023-05-22T10:33:59.425Z,100642.78
2023-05-22T10:36:37.119Z,100641.16
2023-05-22T10:39:09.334Z,100642.59
2023-05-22T10:41:35.888Z,100642.31
2023-05-22T10:44:02.613Z,100631.56
2023-05-22T10:46:32.330Z,100628.81
2023-05-22T10:48:58.854Z,100630.97
2023-05-22T10:51:25.574Z,100610.59
2023-05-22T10:54:00.870Z,100618.66
2023-05-22T10:56:34.240Z,100625.81
2023-05-22T10:59:04.784Z,100616.75
2023-05-22T11:01:37.478Z,100612.91
2023-05-22T11:04:03.976Z,100611.81
2023-05-22T11:06:37.342Z,100616.25
2023-05-22T11:09:11.879Z,100609.38
2023-05-22T11:11:38.317Z,100617.91
2023-05-22T11:14:04.867Z,100615.97
2023-05-22T11:16:34.536Z,100617.66
2023-05-22T11:19:22.053Z,100613.00
2023-05-22T11:21:49.515Z,100606.38
2023-05-22T11:24:18.785Z,100608.59
2023-05-22T11:27:07.169Z,100602.81
2023-05-22T11:29:34.111Z,100611.59
2023-05-22T11:32:01.802Z,100603.63
2023-05-22T11:34:28.304Z,100602.75
2023-05-22T11:36:59.606Z,100605.25
2023-05-22T11:39:26.731Z,100603.03
2023-05-22T11:41:53.260Z,100601.66
2023-05-22T11:44:19.880Z,100596.97
2023-05-22T11:46:46.343Z,100598.06
2023-05-22T11:49:17.260Z,100600.00
2023-05-22T11:55:26.714Z,100593.66
2023-05-22T11:57:55.287Z,100600.28
2023-05-22T12:00:21.835Z,100599.72
2023-05-22T12:02:48.549Z,100598.34
2023-05-22T12:05:16.441Z,100594.19
2023-05-22T12:07:43.250Z,100590.88
2023-05-22T12:10:14.358Z,100586.72
2023-05-22T12:13:07.398Z,100585.03
2023-05-22T12:15:33.850Z,100582.28
2023-05-22T12:18:00.334Z,100577.31
2023-05-22T12:20:31.110Z,100582.25
2023-05-22T12:22:58.871Z,100572.88
2023-05-22T12:25:36.080Z,100579.47
2023-05-22T12:28:02.503Z,100575.31
2023-05-22T12:30:45.232Z,100577.78
2023-05-22T12:33:17.947Z,100577.47
2023-05-22T12:35:51.050Z,100576.06
2023-05-22T12:38:21.168Z,100578.25
2023-05-22T12:41:49.424Z,100580.16
2023-05-22T12:44:16.409Z,100566.00
2023-05-22T12:46:43.208Z,100570.13
2023-05-22T12:51:44.957Z,100579.50
2023-05-22T12:54:11.402Z,100569.00
2023-05-22T12:56:50.265Z,100566.75
2023-05-22T12:59:17.352Z,100564.50
2023-05-22T13:01:44.870Z,100562.53
2023-05-22T13:04:11.301Z,100560.56
2023-05-22T13:06:37.656Z,100564.13
2023-05-22T13:09:04.054Z,100560.50
2023-05-22T13:11:30.990Z,100569.31
2023-05-22T13:13:57.699Z,100554.88
2023-05-22T13:16:24.088Z,100561.50
2023-05-22T13:18:50.767Z,100566.69
2023-05-22T13:21:17.444Z,100560.00
2023-05-22T13:23:43.821Z,100565.19
2023-05-22T13:26:10.184Z,100563.19
2023-05-22T13:28:36.629Z,100561.75
2023-05-22T13:31:03.054Z,100557.84
2023-05-22T13:33:29.463Z,100564.72
2023-05-22T13:35:55.906Z,100564.88
2023-05-22T13:38:22.425Z,100558.41
2023-05-22T13:40:49.045Z,100558.88
2023-05-22T13:43:47.867Z,100554.34
2023-05-22T13:46:14.293Z,100555.63
2023-05-22T13:48:40.690Z,100554.44
2023-05-22T13:51:07.092Z,100551.63
2023-05-22T13:53:33.612Z,100552.72
2023-05-22T13:56:31.946Z,100546.25
2023-05-22T13:58:58.375Z,100541.25
2023-05-22T14:01:24.835Z,100541.47
2023-05-22T14:03:51.355Z,100539.22
2023-05-22T14:06:17.746Z,100534.50
2023-05-22T14:08:44.104Z,100535.34
2023-05-22T14:11:10.710Z,100533.09
2023-05-22T14:13:37.262Z,100529.41
2023-05-22T14:16:03.717Z,100525.75
2023-05-22T14:18:31.284Z,100525.69
2023-05-22T14:20:57.759Z,100521.19
2023-05-22T14:23:24.970Z,100515.34
2023-05-22T14:25:51.406Z,100511.75
2023-05-22T14:28:18.146Z,100508.97
2023-05-22T14:30:44.700Z,100514.00
2023-05-22T14:33:11.355Z,100509.59
2023-05-22T14:35:37.943Z,100501.34
2023-05-22T14:38:04.374Z,100493.94
2023-05-22T14:40:30.896Z,100498.41
2023-05-22T14:42:57.284Z,100484.06
2023-05-22T14:45:23.787Z,100485.47
2023-05-22T14:47:50.465Z,100485.16
2023-05-22T14:50:19.931Z,100478.50
2023-05-22T14:52:48.254Z,100481.78
2023-05-22T14:55:15.101Z,100484.88
2023-05-22T14:57:41.485Z,100481.28
2023-05-22T15:00:12.193Z,100484.88
2023-05-22T15:02:39.238Z,100479.34
2023-05-22T15:05:07.141Z,100482.09
2023-05-22T15:10:03.248Z,100477.09
2023-05-22T15:12:29.710Z,100470.13
2023-05-22T15:14:56.097Z,100477.50
2023-05-22T15:17:22.500Z,100476.63
2023-05-22T15:19:49.594Z,100464.09
2023-05-22T15:22:19.883Z,100462.47
2023-05-22T15:25:04.291Z,100470.25
2023-05-22T15:27:30.934Z,100471.69
2023-05-22T15:29:57.706Z,100464.19
2023-05-22T15:32:24.089Z,100468.50
2023-05-22T15:34:50.508Z,100476.75
2023-05-22T15:37:16.911Z,100473.28
2023-05-22T15:39:43.317Z,100473.25
2023-05-22T15:42:09.807Z,100460.97
2023-05-22T15:44:36.164Z,100468.56
2023-05-22T15:47:02.605Z,100471.19
2023-05-22T15:49:31.256Z,100470.16
2023-05-22T15:51:58.616Z,100468.00
2023-05-22T15:54:25.111Z,100467.84
2023-05-22T15:56:51.527Z,100464.06
2023-05-22T16:01:53.181Z,100461.19
2023-05-22T16:04:19.543Z,100455.88
2023-05-22T16:06:45.977Z,100466.97
2023-05-22T16:09:12.558Z,100470.66
2023-05-22T16:11:38.929Z,100476.13
2023-05-22T16:14:05.386Z,100467.75
2023-05-22T16:16:31.846Z,100470.19
2023-05-22T16:18:58.327Z,100466.28
2023-05-22T16:21:24.934Z,100469.50
2023-05-22T16:23:51.311Z,100475.22
2023-05-22T16:26:17.792Z,100473.75
2023-05-22T16:28:44.165Z,100468.59
2023-05-22T16:31:12.744Z,100473.97
2023-05-22T16:33:39.165Z,100475.81
2023-05-22T16:36:05.903Z,100473.19
2023-05-22T16:38:32.336Z,100465.09
2023-05-22T16:40:58.834Z,100473.66
2023-05-22T16:43:25.366Z,100475.94
2023-05-22T16:45:51.760Z,100490.34
2023-05-22T16:48:18.749Z,100486.19
2023-05-22T16:50:46.895Z,100488.38
2023-05-22T16:53:13.898Z,100487.44
2023-05-22T16:55:40.502Z,100502.59
2023-05-22T16:58:07.270Z,100503.78
2023-05-22T17:00:33.766Z,100492.09
2023-05-22T17:03:00.513Z,100497.94
2023-05-22T17:05:27.095Z,100501.47
2023-05-22T17:07:53.484Z,100498.88
2023-05-22T17:10:19.965Z,100501.78
2023-05-22T17:12:46.501Z,100503.06
2023-05-22T17:15:13.030Z,100514.56
2023-05-22T17:17:39.540Z,100521.13
2023-05-22T17:20:07.115Z,100525.06
2023-05-22T17:22:33.793Z,100522.75
2023-05-22T17:25:00.184Z,100523.50
2023-05-22T17:27:35.603Z,100535.78
2023-05-22T17:30:04.747Z,100554.41
2023-05-22T17:32:31.352Z,100542.28
2023-05-22T17:34:57.868Z,100546.59
2023-05-22T17:37:24.270Z,100575.31
2023-05-22T17:39:51.592Z,100590.09
2023-05-22T17:42:18.036Z,100602.41
2023-05-22T17:44:44.565Z,100611.72
2023-05-22T17:47:10.974Z,100627.78
2023-05-22T17:49:37.519Z,100629.59
2023-05-22T17:52:04.044Z,100635.22
2023-05-22T17:54:34.583Z,100637.50
2023-05-22T17:57:03.036Z,100632.69
2023-05-22T17:59:32.146Z,100648.19
2023-05-22T18:01:58.681Z,100638.47
2023-05-22T18:04:25.218Z,100639.41
2023-05-22T18:06:52.109Z,100639.91
2023-05-22T18:09:18.515Z,100656.81
2023-05-22T18:11:44.875Z,100660.66
2023-05-22T18:14:11.285Z,100662.78
2023-05-22T18:16:37.742Z,100677.53
2023-05-22T18:19:04.320Z,100679.69
2023-05-22T18:21:30.738Z,100681.84
2023-05-22T18:23:57.148Z,100688.63
2023-05-22T18:26:23.601Z,100693.25
2023-05-22T18:28:49.988Z,100697.06
2023-05-22T18:31:16.629Z,100699.78
2023-05-22T18:33:45.125Z,100701.47
2023-05-22T18:36:12.677Z,100700.16
2023-05-22T18:38:39.096Z,100699.69
2023-05-22T18:41:06.134Z,100709.06
2023-05-22T18:43:32.679Z,100713.00
2023-05-22T18:45:59.126Z,100712.28
2023-05-22T18:48:27.102Z,100717.84
2023-05-22T18:50:53.869Z,100713.53
2023-05-22T18:53:22.152Z,100721.38
2023-05-22T18:55:48.742Z,100713.53
2023-05-22T18:58:15.316Z,100721.84
2023-05-22T19:00:42.015Z,100711.56
2023-05-22T19:03:11.206Z,100721.78
2023-05-22T19:05:37.915Z,100720.00
2023-05-22T19:08:05.279Z,100719.28
2023-05-22T19:10:32.969Z,100725.94
2023-05-22T19:12:59.384Z,100730.06
2023-05-22T19:15:26.036Z,100725.47
2023-05-22T19:17:52.764Z,100729.84
2023-05-22T19:20:19.353Z,100731.50
2023-05-22T19:22:45.788Z,100729.63
2023-05-22T19:25:12.264Z,100729.63
2023-05-22T19:27:39.468Z,100731.28
2023-05-22T19:30:07.150Z,100730.44
2023-05-22T19:32:33.799Z,100732.91
2023-05-22T19:35:00.352Z,100739.25
2023-05-22T19:37:26.801Z,100734.84
2023-05-22T19:42:34.729Z,100740.56
2023-05-22T19:45:02.527Z,100755.59
2023-05-22T19:47:29.029Z,100747.28
2023-05-22T19:49:55.790Z,100752.88
2023-05-22T19:52:22.665Z,100758.72
2023-05-22T19:54:49.300Z,100758.28
2023-05-22T19:58:05.746Z,100763.31
2023-05-22T20:00:33.333Z,100772.34
2023-05-22T20:02:59.780Z,100763.34
2023-05-22T20:05:26.333Z,100760.59
2023-05-22T20:07:52.891Z,100762.50
2023-05-22T20:10:19.506Z,100767.13
2023-05-22T20:12:47.127Z,100770.09
2023-05-22T20:15:14.972Z,100771.97
2023-05-22T20:17:42.498Z,100773.84
2023-05-22T20:20:09.809Z,100779.91
2023-05-22T20:22:36.538Z,100779.84
2023-05-22T20:25:05.125Z,100772.25
2023-05-22T20:27:37.512Z,100770.03
2023-05-22T20:30:04.650Z,100778.78
2023-05-22T20:32:32.327Z,100773.63
2023-05-22T20:34:59.168Z,100776.47
2023-05-22T20:37:26.498Z,100775.72
2023-05-22T20:39:53.167Z,100776.03
2023-05-22T20:42:19.617Z,100776.34
2023-05-22T20:44:46.511Z,100780.22
2023-05-22T20:47:13.072Z,100780.72
2023-05-22T20:52:07.345Z,100788.88
2023-05-22T20:54:34.719Z,100794.63
2023-05-22T20:57:01.897Z,100794.94
2023-05-22T20:59:29.117Z,100792.50
2023-05-22T21:01:56.950Z,100802.81
2023-05-22T21:04:24.277Z,100809.38
2023-05-22T21:06:51.347Z,100803.19
2023-05-22T21:11:48.595Z,100807.50
2023-05-22T21:14:17.153Z,100800.22
2023-05-22T21:16:43.661Z,100800.44
2023-05-22T21:19:10.214Z,100804.28
2023-05-22T21:21:41.464Z,100797.19
2023-05-22T21:24:11.809Z,100798.06
2023-05-22T21:26:38.311Z,100802.72
2023-05-22T21:29:09.702Z,100810.47
2023-05-22T21:31:36.368Z,100809.47
2023-05-22T21:34:28.605Z,100810.97
2023-05-22T21:36:57.657Z,100812.44
2023-05-22T21:39:24.204Z,100810.59
2023-05-22T21:41:50.640Z,100816.69
2023-05-22T21:44:17.193Z,100815.66
2023-05-22T21:46:43.731Z,100816.53
2023-05-22T21:49:10.270Z,100813.81
2023-05-22T21:51:37.010Z,100817.38
2023-05-22T21:54:03.566Z,100818.03
2023-05-22T21:56:29.997Z,100811.31
2023-05-22T21:58:56.591Z,100815.53
2023-05-22T22:01:23.161Z,100813.25
2023-05-22T22:03:49.796Z,100810.97
2023-05-22T22:06:25.471Z,100814.72
2023-05-22T22:08:53.164Z,100808.03
2023-05-22T22:11:19.650Z,100813.88
2023-05-22T22:13:51.885Z,100806.97
2023-05-22T22:16:18.358Z,100812.00
2023-05-22T22:18:44.881Z,100796.94
2023-05-22T22:21:11.909Z,100812.66
2023-05-22T22:23:38.428Z,100814.75
2023-05-22T22:26:37.518Z,100807.63
2023-05-22T22:31:32.279Z,100822.72
2023-05-22T22:33:58.891Z,100813.09
2023-05-22T22:36:25.775Z,100818.97
2023-05-22T22:38:52.207Z,100813.91
2023-05-22T22:41:18.667Z,100815.19
2023-05-22T22:44:13.933Z,100816.25
2023-05-22T22:47:33.369Z,100818.56
2023-05-22T22:49:59.855Z,100811.84
2023-05-22T22:52:37.898Z,100817.28
2023-05-22T22:55:06.170Z,100818.53
2023-05-22T22:57:32.883Z,100818.97
2023-05-22T22:59:59.423Z,100828.19
2023-05-22T23:02:25.901Z,100821.88
2023-05-22T23:04:52.528Z,100818.13
2023-05-22T23:07:19.136Z,100816.25
2023-05-22T23:09:45.581Z,100814.16
2023-05-22T23:12:12.100Z,100811.84
2023-05-22T23:14:38.635Z,100810.41
2023-05-22T23:17:05.768Z,100806.19
2023-05-22T23:19:32.328Z,100811.84
2023-05-22T23:21:58.888Z,100804.72
2023-05-22T23:24:25.358Z,100803.44
2023-05-22T23:26:52.795Z,100802.19
2023-05-22T23:29:19.378Z,100804.72
2023-05-22T23:31:47.347Z,100802.00
2023-05-22T23:34:14.018Z,100802.81
2023-05-22T23:36:40.714Z,100796.31
2023-05-22T23:39:07.295Z,100796.13
2023-05-22T23:41:33.910Z,100788.78
2023-05-22T23:44:00.570Z,100780.44
2023-05-22T23:46:27.205Z,100785.44
2023-05-22T23:48:53.657Z,100781.66
2023-05-22T23:51:20.129Z,100787.72
2023-05-22T23:53:46.770Z,100784.56
2023-05-22T23:56:13.317Z,100786.28
2023-05-22T23:58:39.822Z,100787.09
